Time;durP1;ratioP1;P1;durP2;ratioP2;P2;SDS_P1;SDS_P2;PMS_P1;PMS_P2;Temp;Humidity;BMP_temperature;BMP_pressure;BME280_temperature;BME280_humidity;BME280_pressure;Samples;Min_cycle;Max_cycle;Signal;HPM_P1;HPM_P2
2023/06/09 00:00:11;;;;;;;9.23;3.50;;;;;;;-145.18;100.00;46595.94;5055324;28;20119;-84
2023/06/09 00:02:38;;;;;;;7.10;2.97;;;;;;;-145.18;100.00;46597.88;5036040;28;20361;-84
2023/06/09 00:05:04;;;;;;;8.13;3.10;;;;;;;-145.18;100.00;46582.25;5068965;28;20119;-84
2023/06/09 00:07:33;;;;;;;7.33;2.70;;;;;;;-145.18;100.00;46617.41;5073487;28;20115;-84
2023/06/09 00:09:59;;;;;;;10.33;3.20;;;;;;;-145.18;100.00;46601.78;5054335;28;20519;-84
2023/06/09 00:12:25;;;;;;;9.67;2.83;;;;;;;-145.18;100.00;46597.88;5065280;28;20031;-84
2023/06/09 00:14:50;;;;;;;6.70;2.97;;;;;;;-145.18;100.00;46588.13;5052366;28;20555;-84
2023/06/09 00:17:15;;;;;;;8.90;2.70;;;;;;;-145.18;100.00;46584.22;5074779;28;20024;-84
2023/06/09 00:19:41;;;;;;;9.43;3.20;;;;;;;-145.18;100.00;46584.22;5040677;28;20480;-84
2023/06/09 00:22:13;;;;;;;10.07;3.40;;;;;;;-145.18;100.00;46590.06;5058994;28;20064;-84
2023/06/09 00:24:39;;;;;;;9.53;3.80;;;;;;;-145.18;100.00;46586.16;5054899;28;20021;-84
2023/06/09 00:27:06;;;;;;;10.50;3.17;;;;;;;-145.18;100.00;46582.25;5038606;28;20024;-84
2023/06/09 00:29:32;;;;;;;8.50;3.20;;;;;;;-145.18;100.00;46580.31;5054671;28;20033;-84
2023/06/09 00:31:57;;;;;;;9.17;3.23;;;;;;;-145.18;100.00;46568.59;5046168;28;20090;-84
2023/06/09 00:34:35;;;;;;;9.83;2.73;;;;;;;-145.18;100.00;46566.63;5055317;28;20033;-85
2023/06/09 00:37:11;;;;;;;9.43;3.30;;;;;;;-145.18;100.00;46576.41;5057065;28;20048;-82
2023/06/09 00:39:36;;;;;;;8.00;3.63;;;;;;;-145.18;100.00;46572.50;5072639;28;20037;-84
2023/06/09 00:42:01;;;;;;;6.97;2.87;;;;;;;-145.18;100.00;46566.63;5055235;28;20074;-84
2023/06/09 00:44:27;;;;;;;12.63;3.67;;;;;;;-145.18;100.00;46564.69;5072574;28;20407;-84
2023/06/09 00:46:53;;;;;;;9.33;3.40;;;;;;;-145.18;100.00;46586.16;5073129;28;20033;-84
2023/06/09 00:49:19;;;;;;;9.33;3.23;;;;;;;-145.18;100.00;46560.78;5072102;28;20467;-84
2023/06/09 00:51:45;;;;;;;4.70;2.73;;;;;;;-145.18;100.00;46580.31;5042781;28;20048;-84
2023/06/09 00:54:12;;;;;;;10.63;3.50;;;;;;;-145.18;100.00;46570.53;5053831;28;20471;-84
2023/06/09 00:56:39;;;;;;;5.50;2.97;;;;;;;-145.18;100.00;46576.41;5054529;28;20035;-84
2023/06/09 00:59:07;;;;;;;6.17;2.80;;;;;;;-145.18;100.00;46564.69;5072242;28;20476;-84
2023/06/09 01:01:33;;;;;;;13.43;3.47;;;;;;;-145.18;100.00;46576.41;5054600;28;20037;-84
2023/06/09 01:04:00;;;;;;;8.37;3.70;;;;;;;-145.18;100.00;46558.81;5072195;28;20039;-84
2023/06/09 01:06:43;;;;;;;8.00;3.63;;;;;;;-145.18;100.00;46560.78;5072700;28;20078;-84
2023/06/09 01:09:45;;;;;;;9.07;2.87;;;;;;;-145.18;100.00;46580.31;5061321;28;20041;-84
2023/06/09 01:12:47;;;;;;;7.20;3.57;;;;;;;-145.18;100.00;46564.69;5051939;28;20032;-84
2023/06/09 01:15:13;;;;;;;8.43;3.37;;;;;;;-145.18;100.00;46558.81;5024087;28;20064;-84
2023/06/09 01:17:40;;;;;;;12.33;3.40;;;;;;;-145.18;100.00;46570.53;5054471;28;20117;-84
2023/06/09 01:20:07;;;;;;;8.23;3.67;;;;;;;-145.18;100.00;46558.81;5072364;28;20043;-84
2023/06/09 01:22:51;;;;;;;10.60;3.47;;;;;;;-145.18;100.00;46562.72;5073295;28;20024;-84
2023/06/09 01:25:17;;;;;;;11.50;3.33;;;;;;;-145.18;100.00;46564.69;5053436;28;20115;-84
2023/06/09 01:27:44;;;;;;;9.93;3.60;;;;;;;-145.18;100.00;46578.34;5069556;28;20032;-84
2023/06/09 01:30:13;;;;;;;8.87;2.87;;;;;;;-145.18;100.00;46564.69;5064510;28;20060;-84
2023/06/09 01:32:41;;;;;;;9.07;2.83;;;;;;;-145.18;100.00;46558.81;5049316;28;20028;-84
2023/06/09 01:35:08;;;;;;;7.73;2.63;;;;;;;-145.18;100.00;46552.97;5072149;28;20028;-84
2023/06/09 01:37:34;;;;;;;10.63;3.10;;;;;;;-145.18;100.00;46562.72;5072008;28;20163;-84
2023/06/09 01:40:00;;;;;;;7.17;2.97;;;;;;;-145.18;100.00;46566.63;5054299;28;20111;-84
2023/06/09 01:42:25;;;;;;;7.47;2.70;;;;;;;-145.18;100.00;46558.81;5033866;28;20499;-84
2023/06/09 01:44:51;;;;;;;10.60;3.20;;;;;;;-145.18;100.00;46558.81;5070782;28;20028;-84
2023/06/09 01:47:19;;;;;;;9.87;3.17;;;;;;;-145.18;100.00;46560.78;5053784;28;20044;-84
2023/06/09 01:49:56;;;;;;;6.03;2.47;;;;;;;-145.18;100.00;46562.72;5051290;28;20040;-84
2023/06/09 01:52:33;;;;;;;9.27;3.10;;;;;;;-145.18;100.00;46566.63;5070699;28;20373;-83
2023/06/09 01:55:07;;;;;;;14.90;3.27;;;;;;;-145.18;100.00;46552.97;5071602;28;20029;-84
2023/06/09 01:57:44;;;;;;;7.10;3.27;;;;;;;-145.18;100.00;46566.63;5071794;28;20353;-84
2023/06/09 02:00:11;;;;;;;12.83;3.63;;;;;;;-145.18;100.00;46558.81;5053502;28;20522;-84
2023/06/09 02:02:38;;;;;;;6.97;3.33;;;;;;;-145.18;100.00;46560.78;5053486;28;20116;-84
2023/06/09 02:05:06;;;;;;;11.07;3.33;;;;;;;-145.18;100.00;46562.72;5053988;28;20468;-84
2023/06/09 02:07:34;;;;;;;8.00;3.30;;;;;;;-145.18;100.00;46554.91;5071890;28;20028;-84
2023/06/09 02:09:59;;;;;;;10.47;3.07;;;;;;;-145.18;100.00;46562.72;5073135;28;20057;-84
2023/06/09 02:12:32;;;;;;;12.77;3.63;;;;;;;-145.18;100.00;46558.81;5041467;28;20025;-84
2023/06/09 02:14:59;;;;;;;9.27;3.27;;;;;;;-145.18;100.00;46558.81;5072455;28;20383;-82
2023/06/09 02:17:33;;;;;;;10.40;3.30;;;;;;;-145.18;100.00;46558.81;5070776;28;20032;-82
2023/06/09 02:19:59;;;;;;;10.43;3.30;;;;;;;-145.18;100.00;46572.50;5071417;28;20484;-82
2023/06/09 02:22:25;;;;;;;5.47;3.03;;;;;;;-145.18;100.00;46556.88;5071847;28;20115;-84
2023/06/09 02:24:51;;;;;;;13.37;3.20;;;;;;;-145.18;100.00;46552.97;5053422;28;20494;-84
2023/06/09 02:27:17;;;;;;;9.97;2.93;;;;;;;-145.18;100.00;46556.88;5071683;28;20115;-81
2023/06/09 02:29:43;;;;;;;12.53;3.90;;;;;;;-145.18;100.00;46554.91;5053635;28;20028;-84
2023/06/09 02:32:12;;;;;;;6.77;2.83;;;;;;;-145.18;100.00;46551.00;5071186;28;20115;-83
2023/06/09 02:34:37;;;;;;;8.60;3.50;;;;;;;-145.18;100.00;46554.91;5071398;28;20023;-84
2023/06/09 02:37:07;;;;;;;9.53;3.67;;;;;;;-145.18;100.00;46556.88;5071322;28;20499;-83
2023/06/09 02:39:34;;;;;;;15.07;3.50;;;;;;;-145.18;100.00;46549.06;5071425;28;20025;-84
2023/06/09 02:42:00;;;;;;;9.97;3.53;;;;;;;-145.18;100.00;46551.00;5071464;28;20024;-84
2023/06/09 02:44:25;;;;;;;8.37;3.10;;;;;;;-145.18;100.00;46558.81;5071289;28;20036;-82
2023/06/09 02:46:54;;;;;;;10.10;3.00;;;;;;;-145.18;100.00;46556.88;5053473;28;20043;-82
2023/06/09 02:49:20;;;;;;;11.03;3.53;;;;;;;-145.18;100.00;46564.69;5070527;28;20476;-82
2023/06/09 02:51:45;;;;;;;11.77;3.07;;;;;;;-145.18;100.00;46562.72;5052222;28;20121;-82
2023/06/09 02:54:11;;;;;;;11.43;3.50;;;;;;;-145.18;100.00;46564.69;5052808;28;20392;-83
2023/06/09 02:56:37;;;;;;;10.67;2.93;;;;;;;-145.18;100.00;46609.59;5071723;28;20476;-84
2023/06/09 02:59:02;;;;;;;9.53;3.13;;;;;;;-145.18;100.00;46613.50;5073670;28;20157;-83
2023/06/09 03:01:34;;;;;;;10.37;2.73;;;;;;;-145.18;100.00;46613.50;5057045;28;20031;-84
2023/06/09 03:04:06;;;;;;;8.93;3.30;;;;;;;-145.18;100.00;46617.41;5056250;28;20047;-82
2023/06/09 03:06:33;;;;;;;11.40;3.20;;;;;;;-145.18;100.00;46629.13;5056793;28;20468;-84
2023/06/09 03:09:01;;;;;;;10.93;3.67;;;;;;;-145.18;100.00;46636.94;5056493;28;20084;-84
2023/06/09 03:11:26;;;;;;;9.00;3.13;;;;;;;-145.18;100.00;46638.91;5056624;28;20025;-84
2023/06/09 03:13:51;;;;;;;8.00;3.43;;;;;;;-145.18;100.00;46660.41;5043790;28;20035;-84
2023/06/09 03:16:17;;;;;;;9.43;3.27;;;;;;;-145.18;100.00;46654.53;5074598;28;20029;-84
2023/06/09 03:18:42;;;;;;;10.83;3.60;;;;;;;-145.18;100.00;46660.41;5040625;28;20058;-84
2023/06/09 03:21:08;;;;;;;12.37;3.30;;;;;;;-145.18;100.00;46660.41;5074995;28;20483;-84
2023/06/09 03:23:37;;;;;;;9.93;3.53;;;;;;;-145.18;100.00;46660.41;5056374;28;20028;-82
2023/06/09 03:26:12;;;;;;;6.43;3.03;;;;;;;-145.18;100.00;46660.41;5056801;28;20044;-82
2023/06/09 03:28:37;;;;;;;8.93;3.30;;;;;;;-145.18;100.00;46646.72;5043891;28;20021;-82
2023/06/09 03:31:03;;;;;;;10.30;4.53;;;;;;;-145.18;100.00;46646.72;5070115;28;20043;-82
2023/06/09 03:33:35;;;;;;;17.83;3.87;;;;;;;-145.18;100.00;46656.50;5074331;28;20070;-83
2023/06/09 03:36:01;;;;;;;8.63;3.53;;;;;;;-145.18;100.00;46656.50;5056163;28;20514;-82
2023/06/09 03:38:26;;;;;;;11.93;3.23;;;;;;;-145.18;100.00;46662.34;5056285;28;20056;-84
2023/06/09 03:40:52;;;;;;;9.53;3.87;;;;;;;-145.18;100.00;46666.25;5073926;28;20032;-84
2023/06/09 03:43:17;;;;;;;7.43;3.33;;;;;;;-145.18;100.00;46662.34;5074817;28;20028;-84
2023/06/09 03:45:43;;;;;;;8.77;3.43;;;;;;;-145.18;100.00;46664.31;5074472;28;20044;-84
2023/06/09 03:48:11;;;;;;;12.87;3.63;;;;;;;-145.18;100.00;46664.31;5055451;28;20028;-84
2023/06/09 03:50:36;;;;;;;8.20;3.07;;;;;;;-145.18;100.00;46654.53;5072509;28;20048;-83
2023/06/09 03:53:02;;;;;;;9.40;3.43;;;;;;;-145.18;100.00;46658.44;5022982;28;20391;-83
2023/06/09 03:55:31;;;;;;;9.17;3.27;;;;;;;-145.18;100.00;46654.53;5060792;28;20029;-84
2023/06/09 03:57:57;;;;;;;12.30;2.90;;;;;;;-145.18;100.00;46648.69;5073627;28;20032;-83
2023/06/09 04:00:23;;;;;;;10.03;3.33;;;;;;;-145.18;100.00;46652.59;5055151;28;20047;-83
2023/06/09 04:02:48;;;;;;;10.07;3.37;;;;;;;-145.18;100.00;46660.41;5065006;28;20029;-84
2023/06/09 04:05:14;;;;;;;9.87;3.43;;;;;;;-145.18;100.00;46648.69;5068225;28;20032;-83
2023/06/09 04:07:40;;;;;;;11.30;3.37;;;;;;;-145.18;100.00;46646.72;5062337;28;20105;-83
2023/06/09 04:10:07;;;;;;;9.93;3.33;;;;;;;-145.18;100.00;46654.53;5047523;28;20044;-83
2023/06/09 04:12:32;;;;;;;14.20;3.33;;;;;;;-145.18;100.00;46654.53;5062942;28;20471;-85
2023/06/09 04:14:59;;;;;;;9.30;4.00;;;;;;;-145.18;100.00;46640.88;5066092;28;20043;-83
2023/06/09 04:17:24;;;;;;;9.33;3.17;;;;;;;-145.18;100.00;46660.41;5037524;28;20031;-83
2023/06/09 04:19:51;;;;;;;9.70;3.57;;;;;;;-145.18;100.00;46650.63;5052833;28;20024;-83
2023/06/09 04:22:16;;;;;;;11.10;3.37;;;;;;;-145.18;100.00;46638.91;5056187;28;20029;-84
2023/06/09 04:24:43;;;;;;;8.27;4.17;;;;;;;-145.18;100.00;46631.09;5070458;28;20073;-83
2023/06/09 04:27:08;;;;;;;12.83;3.47;;;;;;;-145.18;100.00;46629.13;5053154;28;20040;-83
2023/06/09 04:29:34;;;;;;;10.17;3.23;;;;;;;-145.18;100.00;46621.31;5050933;28;20542;-83
2023/06/09 04:32:00;;;;;;;9.53;3.37;;;;;;;-145.18;100.00;46617.41;5043804;28;20035;-83
2023/06/09 04:34:27;;;;;;;12.90;3.63;;;;;;;-145.18;100.00;46613.50;5059501;28;20028;-81
2023/06/09 04:36:58;;;;;;;14.67;3.30;;;;;;;-145.18;100.00;46613.50;5063214;28;20032;-81
2023/06/09 04:39:28;;;;;;;10.37;3.20;;;;;;;-145.18;100.00;46562.72;5069837;28;20029;-80
2023/06/09 04:41:54;;;;;;;6.37;2.80;;;;;;;-145.18;100.00;46560.78;5053937;28;20055;-80
2023/06/09 04:44:20;;;;;;;13.67;3.57;;;;;;;-145.18;100.00;46558.81;5061093;28;20587;-80
2023/06/09 04:46:47;;;;;;;10.27;3.57;;;;;;;-145.18;100.00;46552.97;5041892;28;20037;-80
2023/06/09 04:49:12;;;;;;;10.10;3.50;;;;;;;-145.18;100.00;46552.97;5054364;28;20024;-81
2023/06/09 04:51:41;;;;;;;9.60;3.80;;;;;;;-145.18;100.00;46554.91;5065796;28;20036;-81
2023/06/09 04:54:09;;;;;;;10.00;3.53;;;;;;;-145.18;100.00;46552.97;5047960;28;20471;-81
2023/06/09 04:56:36;;;;;;;10.30;3.13;;;;;;;-145.18;100.00;46543.19;5054549;28;20029;-81
2023/06/09 04:59:03;;;;;;;13.53;3.13;;;;;;;-145.18;100.00;46549.06;5030588;28;20055;-80
2023/06/09 05:01:29;;;;;;;12.70;3.57;;;;;;;-145.18;100.00;46547.09;5026568;28;20191;-80
2023/06/09 05:03:59;;;;;;;11.17;3.87;;;;;;;-145.18;100.00;46549.06;5031211;28;20040;-81
2023/06/09 05:06:25;;;;;;;12.97;4.30;;;;;;;-145.18;100.00;46543.19;5025297;28;20125;-80
2023/06/09 05:08:51;;;;;;;8.40;2.93;;;;;;;-145.18;100.00;46547.09;5037713;28;20059;-81
2023/06/09 05:11:17;;;;;;;10.57;3.47;;;;;;;-145.18;100.00;46543.19;5049483;28;20041;-81
2023/06/09 05:13:43;;;;;;;10.17;3.87;;;;;;;-145.18;100.00;46541.25;5040858;28;20029;-79
2023/06/09 05:16:09;;;;;;;10.83;3.27;;;;;;;-145.18;100.00;46541.25;5017805;28;20059;-80
2023/06/09 05:18:47;;;;;;;12.87;3.83;;;;;;;-145.18;100.00;46539.28;5023281;28;20060;-81
2023/06/09 05:21:12;;;;;;;7.67;3.43;;;;;;;-145.18;100.00;46547.09;5041174;28;20040;-81
2023/06/09 05:23:38;;;;;;;12.60;3.50;;;;;;;-145.18;100.00;46545.16;5031326;28;20036;-80
2023/06/09 05:26:03;;;;;;;12.00;3.77;;;;;;;-145.18;100.00;46541.25;5034372;28;20028;-80
2023/06/09 05:28:29;;;;;;;12.13;4.47;;;;;;;-145.18;100.00;46551.00;5034374;28;20025;-81
2023/06/09 05:30:55;;;;;;;9.27;3.33;;;;;;;-145.18;100.00;46539.28;5035555;28;20043;-81
2023/06/09 05:33:22;;;;;;;14.10;3.73;;;;;;;-145.18;100.00;46549.06;5071999;28;20086;-80
2023/06/09 05:35:47;;;;;;;9.73;3.63;;;;;;;-145.18;100.00;46543.19;5053881;28;20387;-80
2023/06/09 05:38:13;;;;;;;10.10;3.70;;;;;;;-145.18;100.00;46543.19;5035474;28;20025;-80
2023/06/09 05:40:39;;;;;;;11.40;4.27;;;;;;;-145.18;100.00;46547.09;5021110;28;20798;-80
2023/06/09 05:43:04;;;;;;;11.47;4.43;;;;;;;-145.18;100.00;46551.00;5044952;28;20027;-80
2023/06/09 05:45:30;;;;;;;12.33;3.73;;;;;;;-145.18;100.00;46547.09;5033829;28;20033;-80
2023/06/09 05:47:56;;;;;;;15.20;3.60;;;;;;;-145.18;100.00;46543.19;5033823;28;20322;-80
2023/06/09 05:50:21;;;;;;;11.40;4.03;;;;;;;-145.18;100.00;46541.25;5051314;28;20032;-82
2023/06/09 05:52:47;;;;;;;9.93;3.93;;;;;;;-145.18;100.00;46549.06;5039637;28;20037;-83
2023/06/09 05:55:12;;;;;;;19.10;4.83;;;;;;;-145.18;100.00;46539.28;5019237;28;20127;-83
2023/06/09 05:57:40;;;;;;;13.80;3.90;;;;;;;-145.18;100.00;46545.16;5066021;28;20033;-82
2023/06/09 06:00:07;;;;;;;9.57;3.87;;;;;;;-145.18;100.00;46552.97;5048726;28;20403;-82
2023/06/09 06:02:33;;;;;;;10.90;4.00;;;;;;;-145.18;100.00;46547.09;5051492;28;20074;-83
2023/06/09 06:04:58;;;;;;;12.77;4.03;;;;;;;-145.18;100.00;46543.19;5052701;28;20040;-83
2023/06/09 06:07:24;;;;;;;13.77;4.03;;;;;;;-145.18;100.00;46543.19;5070549;28;20029;-83
2023/06/09 06:09:49;;;;;;;14.37;4.33;;;;;;;-145.18;100.00;46552.97;5014207;28;20049;-84
2023/06/09 06:12:15;;;;;;;9.83;4.07;;;;;;;-145.18;100.00;46547.09;5048537;28;20029;-82
2023/06/09 06:14:41;;;;;;;12.70;3.90;;;;;;;-145.18;100.00;46543.19;5046486;28;20041;-82
2023/06/09 06:17:06;;;;;;;14.77;4.53;;;;;;;-145.18;100.00;46547.09;5028925;28;20036;-81
2023/06/09 06:19:31;;;;;;;8.03;3.77;;;;;;;-145.18;100.00;46543.19;5046562;28;20037;-81
2023/06/09 06:21:57;;;;;;;11.23;4.97;;;;;;;-145.18;100.00;46541.25;5050532;28;20037;-82
2023/06/09 06:24:22;;;;;;;12.77;4.57;;;;;;;-145.18;100.00;46547.09;5013866;28;20034;-81
2023/06/09 06:26:48;;;;;;;13.80;3.80;;;;;;;-145.18;100.00;46545.16;5015920;28;20033;-81
2023/06/09 06:29:19;;;;;;;14.60;4.47;;;;;;;-145.18;100.00;46539.28;5019298;28;20485;-81
2023/06/09 06:32:35;;;;;;;12.93;4.83;;;;;;;-145.18;100.00;46551.00;5049720;28;20029;-81
2023/06/09 06:35:08;;;;;;;14.33;5.30;;;;;;;-145.18;100.00;46547.09;5028485;28;20041;-80
2023/06/09 06:40:21;;;;;;;13.10;4.90;;;;;;;-145.18;100.00;46537.34;5047297;28;20112;-82
2023/06/09 06:42:47;;;;;;;12.70;5.40;;;;;;;-145.18;100.00;46551.00;5023149;28;20469;-82
2023/06/09 06:45:12;;;;;;;12.93;5.43;;;;;;;-145.18;100.00;46549.06;5055018;28;20082;-82
2023/06/09 06:47:40;;;;;;;12.90;4.73;;;;;;;-145.18;100.00;46549.06;5054726;28;20029;-83
2023/06/09 06:50:08;;;;;;;13.27;6.03;;;;;;;-145.18;100.00;46545.16;5055163;28;20033;-82
2023/06/09 06:52:33;;;;;;;14.00;5.77;;;;;;;-145.18;100.00;46541.25;5035637;28;20045;-83
2023/06/09 06:54:59;;;;;;;11.90;5.90;;;;;;;-145.18;100.00;46539.28;5036243;28;20044;-82
2023/06/09 06:57:24;;;;;;;13.73;5.53;;;;;;;-145.18;100.00;46535.38;5054632;28;20036;-82
2023/06/09 06:59:50;;;;;;;13.73;5.67;;;;;;;-145.18;100.00;46551.00;5036736;28;20472;-83
2023/06/09 07:02:16;;;;;;;15.97;6.00;;;;;;;-145.18;100.00;46547.09;5033028;28;20040;-82
2023/06/09 07:04:41;;;;;;;13.83;6.67;;;;;;;-145.18;100.00;46541.25;5045899;28;20028;-83
2023/06/09 07:07:07;;;;;;;18.30;6.60;;;;;;;-145.18;100.00;46556.88;5020298;28;20086;-82
2023/06/09 07:09:32;;;;;;;17.43;6.63;;;;;;;-145.18;100.00;46554.91;5059214;28;20127;-83
2023/06/09 07:11:58;;;;;;;14.73;6.43;;;;;;;-145.18;100.00;46549.06;5074188;28;20028;-82
2023/06/09 07:14:23;;;;;;;14.57;6.07;;;;;;;-145.18;100.00;46535.38;5036812;28;20041;-82
2023/06/09 07:16:49;;;;;;;11.87;6.53;;;;;;;-145.18;100.00;46549.06;5037392;28;20137;-83
2023/06/09 07:19:14;;;;;;;14.87;6.70;;;;;;;-145.18;100.00;46539.28;5074378;28;20481;-83
2023/06/09 07:21:40;;;;;;;13.30;6.83;;;;;;;-145.18;100.00;46547.09;5056563;28;20475;-83
2023/06/09 07:24:05;;;;;;;15.20;7.63;;;;;;;-145.18;100.00;46535.38;5056399;28;20043;-82
2023/06/09 07:26:32;;;;;;;15.00;6.30;;;;;;;-145.18;100.00;46537.34;5073411;28;20036;-83
2023/06/09 07:28:57;;;;;;;14.80;6.53;;;;;;;-145.18;100.00;46543.19;5056283;28;20086;-83
2023/06/09 07:31:23;;;;;;;11.03;6.50;;;;;;;-145.18;100.00;46531.47;5056090;28;20383;-82
2023/06/09 07:33:48;;;;;;;15.67;6.90;;;;;;;-145.18;100.00;46551.00;5036103;28;20029;-83
2023/06/09 07:36:14;;;;;;;13.13;7.23;;;;;;;-145.18;100.00;46554.91;5070386;28;20488;-83
2023/06/09 07:38:43;;;;;;;18.47;8.53;;;;;;;-145.18;100.00;46545.16;5073744;28;20108;-83
2023/06/09 07:41:09;;;;;;;11.53;6.63;;;;;;;-145.18;100.00;46554.91;5056048;28;20020;-83
2023/06/09 07:43:34;;;;;;;12.07;7.10;;;;;;;-145.18;100.00;46533.44;5073606;28;20109;-83
2023/06/09 07:46:00;;;;;;;15.10;7.83;;;;;;;-145.18;100.00;46551.00;5055848;28;20059;-83
2023/06/09 07:48:25;;;;;;;17.90;6.60;;;;;;;-145.18;100.00;46531.47;5073764;28;20032;-83
2023/06/09 07:50:52;;;;;;;12.57;7.27;;;;;;;-145.18;100.00;46572.50;5054703;28;20154;-83
2023/06/09 07:53:18;;;;;;;15.67;7.80;;;;;;;-145.18;100.00;46556.88;5036839;28;20037;-81
2023/06/09 07:55:44;;;;;;;14.27;7.97;;;;;;;-145.18;100.00;46568.59;5041466;28;20035;-81
2023/06/09 07:58:10;;;;;;;22.03;7.83;;;;;;;-145.18;100.00;46570.53;5056284;28;20514;-81
2023/06/09 08:00:36;;;;;;;12.37;8.00;;;;;;;-145.18;100.00;46560.78;5073585;28;20029;-81
2023/06/09 08:03:03;;;;;;;14.43;8.13;;;;;;;-145.18;100.00;46554.91;5039324;28;20032;-81
2023/06/09 08:05:30;;;;;;;13.87;8.00;;;;;;;-145.18;100.00;46582.25;5062269;28;20043;-82
2023/06/09 08:07:57;;;;;;;17.43;8.23;;;;;;;-145.18;100.00;46566.63;5036013;28;20047;-83
2023/06/09 08:10:22;;;;;;;12.87;8.07;;;;;;;-145.18;100.00;46574.44;5044998;28;20054;-82
2023/06/09 08:12:50;;;;;;;22.60;8.07;;;;;;;-145.18;100.00;46558.81;5049125;28;20384;-83
2023/06/09 08:15:16;;;;;;;12.83;8.00;;;;;;;-145.18;100.00;46566.63;5045530;28;20051;-82
2023/06/09 08:17:42;;;;;;;18.13;8.27;;;;;;;-145.18;100.00;46554.91;5048606;28;20052;-81
2023/06/09 08:20:07;;;;;;;13.43;8.10;;;;;;;-145.18;100.00;46556.88;5052080;28;20021;-82
2023/06/09 08:22:33;;;;;;;16.60;7.90;;;;;;;-145.18;100.00;46554.91;5034998;28;20601;-84
2023/06/09 08:25:02;;;;;;;14.87;7.93;;;;;;;-145.18;100.00;46547.09;5047005;28;20039;-84
2023/06/09 08:27:28;;;;;;;15.60;7.67;;;;;;;-145.18;100.00;46613.50;5053085;28;20092;-84
2023/06/09 08:29:54;;;;;;;15.93;8.23;;;;;;;-145.18;100.00;46590.06;5017116;28;20124;-84
2023/06/09 08:32:20;;;;;;;19.50;8.87;;;;;;;-145.18;100.00;46699.47;5053302;28;20538;-83
2023/06/09 08:34:45;;;;;;;14.57;8.10;;;;;;;-145.18;100.00;46699.47;5052327;28;20041;-84
2023/06/09 08:37:11;;;;;;;14.53;8.10;;;;;;;-145.18;100.00;46720.94;5051798;28;20029;-83
2023/06/09 08:39:37;;;;;;;15.83;8.50;;;;;;;-145.18;100.00;46828.38;5052616;28;20086;-83
2023/06/09 08:42:20;;;;;;;20.63;8.60;;;;;;;-145.18;100.00;47058.91;5052845;28;20078;-81
2023/06/09 08:44:49;;;;;;;17.37;9.13;;;;;;;-145.18;100.00;47156.56;5051136;28;20043;-83
2023/06/09 08:47:20;;;;;;;16.17;8.33;;;;;;;-145.18;100.00;47127.28;5052806;28;20104;-83
2023/06/09 08:49:47;;;;;;;16.47;9.70;;;;;;;-145.18;100.00;47137.03;5045914;28;20025;-83
2023/06/09 08:52:13;;;;;;;20.63;9.70;;;;;;;-145.18;100.00;47097.97;5049567;28;20064;-84
2023/06/09 08:54:40;;;;;;;16.90;8.33;;;;;;;-145.18;100.00;47121.41;5005150;28;20053;-84
2023/06/09 08:57:06;;;;;;;20.13;8.67;;;;;;;-145.18;100.00;47094.06;5047832;28;20103;-83
2023/06/09 08:59:34;;;;;;;10.53;7.57;;;;;;;-145.18;100.00;47056.94;5042193;28;20040;-84
2023/06/09 09:02:01;;;;;;;13.57;8.83;;;;;;;-145.18;100.00;47066.72;5050325;28;20094;-81
2023/06/09 09:04:30;;;;;;;14.77;8.80;;;;;;;-145.18;100.00;47049.13;5049884;28;20041;-81
2023/06/09 09:06:55;;;;;;;16.73;9.57;;;;;;;-145.18;100.00;47051.09;5017706;28;20037;-83
2023/06/09 09:09:21;;;;;;;15.30;7.93;;;;;;;-145.18;100.00;47049.13;5020620;28;20059;-81
2023/06/09 09:12:12;;;;;;;15.93;8.93;;;;;;;-145.18;100.00;47056.94;5071736;28;20028;-83
2023/06/09 09:15:16;;;;;;;15.37;8.60;;;;;;;-145.18;100.00;47047.19;5065857;28;20425;-81
2023/06/09 09:17:46;;;;;;;15.03;8.90;;;;;;;-145.18;100.00;47019.81;5048513;28;20062;-81
2023/06/09 09:20:14;;;;;;;13.75;8.38;;;;;;;-145.18;100.00;47037.41;5071666;28;20028;-81
2023/06/09 09:22:50;;;;;;;13.17;8.80;;;;;;;-145.18;100.00;47012.00;5050087;28;20065;-83
2023/06/09 09:25:27;;;;;;;16.45;8.77;;;;;;;-145.18;100.00;47000.28;5063353;28;20025;-80
2023/06/09 09:28:00;;;;;;;15.80;8.67;;;;;;;-145.18;100.00;46994.44;5049994;28;20028;-81
2023/06/09 09:30:49;;;;;;;11.77;8.48;;;;;;;-145.18;100.00;47053.03;5066027;28;20029;-81
2023/06/09 09:33:23;;;;;;;15.63;8.82;;;;;;;-145.18;100.00;47019.81;5047117;28;20028;-80
2023/06/09 09:36:03;;;;;;;15.20;8.67;;;;;;;-145.18;100.00;46996.38;5072335;28;20078;-81
2023/06/09 09:38:30;;;;;;;11.50;8.52;;;;;;;-145.18;100.00;46990.53;5065868;28;20612;-81
2023/06/09 09:41:00;;;;;;;17.92;8.60;;;;;;;-145.18;100.00;46996.38;5065200;28;20044;-80
2023/06/09 09:43:37;;;;;;;16.42;7.97;;;;;;;-145.18;100.00;46996.38;5049434;28;20060;-82
2023/06/09 09:46:07;;;;;;;12.38;7.28;;;;;;;-145.18;100.00;46992.47;5070477;28;20060;-81
2023/06/09 09:48:39;;;;;;;11.57;7.00;;;;;;;-145.18;100.00;47010.06;5064830;28;20464;-81
2023/06/09 09:51:08;;;;;;;16.35;7.60;;;;;;;-145.18;100.00;47013.97;5033520;28;20131;-82
2023/06/09 09:53:34;;;;;;;11.43;8.02;;;;;;;-145.18;100.00;46994.44;5041013;28;20078;-81
2023/06/09 09:56:00;;;;;;;13.30;7.70;;;;;;;-145.18;100.00;46971.00;5033974;28;20067;-81
2023/06/09 09:58:37;;;;;;;11.43;7.93;;;;;;;-145.18;100.00;46971.00;5034066;28;20078;-81
2023/06/09 10:01:07;;;;;;;12.77;7.80;;;;;;;-145.18;100.00;46974.91;5053653;28;20127;-81
2023/06/09 10:03:44;;;;;;;16.30;8.00;;;;;;;-145.18;100.00;46963.19;5044158;28;20047;-81
2023/06/09 10:06:12;;;;;;;13.90;7.97;;;;;;;-145.18;100.00;46980.75;5034333;28;20495;-81
2023/06/09 10:08:44;;;;;;;11.38;7.03;;;;;;;-145.18;100.00;46982.72;5053694;28;20036;-81
2023/06/09 10:11:12;;;;;;;13.20;7.03;;;;;;;-145.18;100.00;46949.50;5038243;28;20481;-81
2023/06/09 10:13:37;;;;;;;12.98;7.00;;;;;;;-145.18;100.00;46951.44;5033768;28;20484;-81
2023/06/09 10:16:03;;;;;;;11.55;7.20;;;;;;;-145.18;100.00;46951.44;5012806;28;20032;-82
2023/06/09 10:18:28;;;;;;;11.27;7.65;;;;;;;-145.18;100.00;46951.44;5034234;28;20056;-81
2023/06/09 10:20:55;;;;;;;12.70;8.15;;;;;;;-145.18;100.00;46957.31;5016551;28;20088;-81
2023/06/09 10:23:21;;;;;;;12.70;7.50;;;;;;;-145.18;100.00;46965.13;5034735;28;20037;-81
2023/06/09 10:25:51;;;;;;;14.52;7.97;;;;;;;-145.18;100.00;46957.31;5021189;28;20033;-81
2023/06/09 10:28:18;;;;;;;11.98;7.72;;;;;;;-145.18;100.00;46969.03;5035826;28;20108;-83
2023/06/09 10:30:50;;;;;;;12.27;6.55;;;;;;;-145.18;100.00;46967.09;5037561;28;20052;-82
2023/06/09 10:33:20;;;;;;;11.65;7.43;;;;;;;-145.18;100.00;46943.63;5033823;28;20031;-82
2023/06/09 10:35:49;;;;;;;12.60;8.15;;;;;;;-145.18;100.00;46957.31;5037518;28;20041;-82
2023/06/09 10:38:24;;;;;;;11.98;7.95;;;;;;;-145.18;100.00;46971.00;5035003;28;20053;-81
2023/06/09 10:41:15;;;;;;;13.98;7.47;;;;;;;-145.18;100.00;46965.13;5035885;28;20091;-83
2023/06/09 10:44:04;;;;;;;12.48;7.28;;;;;;;-145.18;100.00;46943.63;5039243;28;20472;-83
2023/06/09 10:46:46;;;;;;;11.15;6.63;;;;;;;-145.18;100.00;46926.06;5036479;28;20082;-82
2023/06/09 10:49:24;;;;;;;11.45;6.57;;;;;;;-145.18;100.00;46935.81;5017763;28;20029;-82
2023/06/09 10:51:50;;;;;;;15.32;6.45;;;;;;;-145.18;100.00;46931.91;5028335;28;20416;-81
2023/06/09 10:54:20;;;;;;;12.43;6.72;;;;;;;-145.18;100.00;46937.78;5035876;28;20464;-82
2023/06/09 10:56:52;;;;;;;10.55;6.40;;;;;;;-145.18;100.00;46949.50;5034456;28;20036;-81
2023/06/09 10:59:23;;;;;;;11.43;6.35;;;;;;;-145.18;100.00;46920.19;5031887;28;20055;-81
2023/06/09 11:02:01;;;;;;;10.98;6.63;;;;;;;-145.18;100.00;46912.38;5027150;28;20124;-82
2023/06/09 11:04:44;;;;;;;11.30;6.47;;;;;;;-145.18;100.00;46933.88;5032920;28;20513;-82
2023/06/09 11:07:11;;;;;;;11.52;5.68;;;;;;;-145.18;100.00;46914.34;5034590;28;20032;-82
2023/06/09 11:09:37;;;;;;;11.75;5.78;;;;;;;-145.18;100.00;46906.53;5027071;28;20057;-82
2023/06/09 11:12:05;;;;;;;9.52;5.90;;;;;;;-145.18;100.00;46941.69;5047243;28;20405;-81